Currently 59°F in Riverside (Orangecrest), California, USA
59°F
59°F / 57°F
calm
0.00"
Sunday, December 16, 2018 2:18 AM PST

Riverside (Orangecrest), California Weather Summary
Last 36 Hours

Temperature Winds Hourly Humidity Dewpoint
Time Report Norm Report Norm Max Gusts Precip. Rpt. Norm Rpt. Norm Pressure
1Sun 02:18 AM  58.8°F  56°F  calm  4 mph  none  0.00"  19%  29%  14°F  23°F  30.15"
Sun 02:00 AM  58.2°F  56°F  calm  4 mph  5 mph  0.00"  20%  29%  15°F  23°F  30.15"
Sun 01:00 AM  57.3°F  57°F  3 mph SW  4 mph  5 mph  0.00"  22%  29%  17°F  23°F  30.15"
3Sun 12:45 AM  56.6°F  57°F  3 mph SW  4 mph  4 mph  ----  23%  29%  18°F  23°F  30.15"
2Sun 12:00 AM  58.9°F  57°F  2 mph SW  4 mph  5 mph  0.00"  18%  29%  14°F  24°F  30.15"
Sat 11:00 PM  59.9°F  59°F  4 mph SW  3 mph  4 mph  0.00"  19%  28%  16°F  24°F  30.16"
Sat 10:00 PM  61.4°F  60°F  calm  3 mph  2 mph  0.00"  19%  27%  16°F  25°F  30.17"
Sat 09:00 PM  60.2°F  60°F  1 mph SW  3 mph  3 mph  0.00"  27%  25%  24°F  23°F  30.16"
Sat 08:00 PM  61.3°F  61°F  calm  4 mph  4 mph  0.00"  26%  24%  25°F  22°F  30.16"
Sat 07:00 PM  63.1°F  62°F  4 mph SW  4 mph  7 mph  0.00"  23%  22%  24°F  21°F  30.14"
Sat 06:00 PM  63.8°F  63°F  4 mph SW  4 mph  6 mph  0.00"  25%  22%  25°F  21°F  30.12"
Sat 05:00 PM  66.1°F  64°F  3 mph SW  5 mph  8 mph  0.00"  16%  19%  17°F  20°F  30.11"
Sat 04:00 PM  69.6°F  68°F  4 mph SW  6 mph  9 mph  0.00"  14%  16%  17°F  17°F  30.09"
Sat 03:00 PM  71.3°F  69°F  2 mph SW  6 mph  6 mph  0.00"  7%  14%  1°F  16°F  30.08"
Sat 02:00 PM  71.5°F  69°F  calm  5 mph  7 mph  0.00"  7%  14%  0°F  16°F  30.07"
Sat 01:00 PM  70.7°F  69°F  2 mph SW  6 mph  10 mph  0.00"  10%  14%  9°F  15°F  30.08"
Sat 12:00 PM  68.5°F  68°F  calm  5 mph  9 mph  0.00"  12%  15%  11°F  16°F  30.10"
Sat 11:00 AM  66.8°F  67°F  calm  5 mph  10 mph  0.00"  11%  17%  9°F  18°F  30.13"
Sat 10:00 AM  63.5°F  64°F  3 mph SW  4 mph  9 mph  0.00"  15%  20%  13°F  21°F  30.15"
Sat 09:00 AM  60.5°F  60°F  6 mph SW  3 mph  9 mph  0.00"  15%  24%  10°F  22°F  30.14"
Sat 08:00 AM  57.5°F  59°F  4 mph SW  3 mph  8 mph  0.00"  17%  24%  11°F  20°F  30.13"
Sat 07:00 AM  54.9°F  57°F  3 mph SW  4 mph  5 mph  0.00"  25%  25%  18°F  20°F  30.12"
Sat 06:00 AM  54.6°F  57°F  2 mph SW  4 mph  6 mph  0.00"  22%  25%  15°F  21°F  30.11"
Sat 05:00 AM  51.6°F  56°F  3 mph SW  3 mph  5 mph  0.00"  31%  28%  20°F  22°F  30.11"
Sat 04:00 AM  54.9°F  57°F  3 mph SW  3 mph  7 mph  0.00"  23%  29%  16°F  24°F  30.12"
Sat 03:00 AM  55.1°F  57°F  4 mph SW  2 mph  6 mph  0.00"  20%  29%  13°F  24°F  30.14"
Sat 02:00 AM  56.4°F  57°F  2 mph SW  3 mph  5 mph  0.00"  19%  30%  13°F  25°F  30.16"
Sat 01:00 AM  57.9°F  58°F  2 mph SW  3 mph  5 mph  0.00"  16%  30%  10°F  25°F  30.15"
Sat 12:00 AM  54.8°F  58°F  1 mph SW  3 mph  5 mph  0.00"  26%  30%  19°F  26°F  30.16"
Fri 11:00 PM  55.3°F  59°F  3 mph SW  4 mph  6 mph  0.00"  23%  28%  17°F  25°F  30.17"
Fri 10:00 PM  56.4°F  60°F  2 mph SW  3 mph  7 mph  0.00"  20%  28%  14°F  25°F  30.18"
Fri 09:00 PM  58.3°F  61°F  4 mph SW  4 mph  8 mph  0.00"  16%  27%  10°F  25°F  30.19"
Fri 08:00 PM  57.4°F  62°F  4 mph SW  4 mph  7 mph  0.00"  18%  25%  12°F  24°F  30.18"
Fri 07:00 PM  57.7°F  62°F  4 mph SW  4 mph  6 mph  0.00"  17%  23%  11°F  23°F  30.18"
Fri 06:00 PM  58.1°F  63°F  2 mph SW  5 mph  6 mph  0.00"  17%  23%  11°F  23°F  30.18"
Fri 05:00 PM  59.3°F  65°F  3 mph SW  6 mph  11 mph  0.00"  16%  20%  11°F  21°F  30.17"
Fri 04:00 PM  60.5°F  68°F  4 mph SW  6 mph  12 mph  0.00"  17%  16%  13°F  19°F  30.17"
Fri 03:00 PM  62.9°F  70°F  6 mph SW  6 mph  12 mph  0.00"  15%  15%  13°F  18°F  30.17"

  1. Current weather data. No green row appears if the current weather data is also the high or low for the current day.
  2. High temperature for the current day.
  3. Low temperature for the current day.

The Riverside (Orangecrest), California weather pages are a service of WeatherCurrents.
Copyright ©Sun Dec 16 02:18:39 PST 2018  WeatherCurrents. All rights reserved. - Submit questions and comments - Privacy Policy

This page automatically refreshes every 10 minutes.